Time;durP1;ratioP1;P1;durP2;ratioP2;P2;SDS_P1;SDS_P2;PMS_P1;PMS_P2;Temp;Humidity;BMP_temperature;BMP_pressure;BME280_temperature;BME280_humidity;BME280_pressure;Samples;Min_cycle;Max_cycle;Signal;HPM_P1;HPM_P2
2022/05/20 00:01:44;;;;;;;6.15;3.47;;;13.40;99.90;;;;;;5017818;28;20133;-83
2022/05/20 00:04:09;;;;;;;5.82;3.53;;;13.40;99.90;;;;;;5006388;28;20042;-78
2022/05/20 00:06:35;;;;;;;4.43;3.45;;;13.40;99.90;;;;;;5002555;28;20038;-81
2022/05/20 00:09:01;;;;;;;8.48;3.60;;;13.40;99.90;;;;;;5003572;28;20648;-79
2022/05/20 00:11:26;;;;;;;10.10;4.13;;;13.40;99.90;;;;;;4996934;28;20057;-82
2022/05/20 00:13:52;;;;;;;7.13;3.63;;;13.40;99.90;;;;;;5012338;28;20057;-79
2022/05/20 00:16:17;;;;;;;8.20;4.63;;;13.40;99.90;;;;;;5019479;28;20062;-83
2022/05/20 00:18:43;;;;;;;7.72;4.63;;;14.70;99.90;;;;;;5005237;28;20548;-78
2022/05/20 00:21:09;;;;;;;6.25;5.32;;;13.40;99.90;;;;;;5013790;28;20049;-83
2022/05/20 00:23:34;;;;;;;7.00;5.53;;;13.40;99.90;;;;;;4996256;28;20041;-81
2022/05/20 00:26:00;;;;;;;6.80;4.90;;;13.60;99.90;;;;;;5004818;28;20046;-83
2022/05/20 00:28:28;;;;;;;8.93;5.43;;;13.30;99.90;;;;;;5013939;28;20057;-80
2022/05/20 00:30:57;;;;;;;8.93;5.20;;;13.30;99.90;;;;;;5000626;28;20042;-76
2022/05/20 00:33:24;;;;;;;6.88;4.68;;;13.20;99.90;;;;;;5016417;28;20033;-82
2022/05/20 00:35:50;;;;;;;9.02;4.40;;;13.20;99.90;;;;;;5004044;28;20034;-83
2022/05/20 00:38:16;;;;;;;8.80;4.95;;;13.20;99.90;;;;;;5005105;28;20052;-83
2022/05/20 00:40:43;;;;;;;8.35;4.50;;;13.30;99.90;;;;;;4999329;28;20042;-80
2022/05/20 00:43:14;;;;;;;10.00;5.15;;;13.30;99.90;;;;;;5008871;28;20163;-83
2022/05/20 00:45:42;;;;;;;7.88;5.10;;;13.30;99.90;;;;;;5007446;28;20042;-83
2022/05/20 00:48:08;;;;;;;9.43;5.13;;;13.20;99.90;;;;;;4990704;28;20506;-81
2022/05/20 00:50:36;;;;;;;6.22;5.25;;;13.20;99.90;;;;;;5005982;28;20050;-75
2022/05/20 00:53:02;;;;;;;11.88;6.50;;;13.20;99.90;;;;;;5003878;28;20050;-81
2022/05/20 00:55:28;;;;;;;11.45;5.80;;;13.10;99.90;;;;;;5002772;28;20437;-78
2022/05/20 00:58:04;;;;;;;8.85;6.03;;;13.10;99.90;;;;;;5005455;28;20089;-83
2022/05/20 01:00:32;;;;;;;9.95;6.70;;;13.10;99.90;;;;;;4994454;28;20096;-82
2022/05/20 01:03:06;;;;;;;9.48;5.75;;;13.00;99.90;;;;;;5000143;28;20056;-82
2022/05/20 01:05:35;;;;;;;7.88;5.53;;;13.00;99.90;;;;;;5000877;28;20129;-79
2022/05/20 01:08:01;;;;;;;11.40;6.45;;;12.90;99.90;;;;;;5001880;28;20045;-82
2022/05/20 01:10:27;;;;;;;12.73;6.57;;;12.90;99.90;;;;;;5003076;28;20132;-83
2022/05/20 01:12:54;;;;;;;9.70;6.82;;;12.90;99.90;;;;;;4998626;28;20648;-81
2022/05/20 01:15:20;;;;;;;10.13;6.30;;;14.00;99.90;;;;;;4995344;28;20062;-84
2022/05/20 01:17:49;;;;;;;10.20;6.25;;;12.80;99.90;;;;;;4988853;28;20065;-84
2022/05/20 01:20:21;;;;;;;12.93;7.45;;;12.80;99.90;;;;;;5014649;28;20112;-81
2022/05/20 01:22:53;;;;;;;7.78;6.93;;;12.80;99.90;;;;;;5000041;28;20237;-82
2022/05/20 01:25:20;;;;;;;11.95;6.13;;;12.70;99.90;;;;;;5004921;28;20099;-83
2022/05/20 01:27:46;;;;;;;12.45;7.28;;;12.80;99.90;;;;;;5021362;28;20889;-84
2022/05/20 01:30:14;;;;;;;12.35;8.10;;;12.80;99.90;;;;;;4999379;28;20512;-75
2022/05/20 01:32:40;;;;;;;13.05;8.13;;;12.70;99.90;;;;;;5000365;28;20058;-83
2022/05/20 01:35:10;;;;;;;13.13;7.35;;;12.70;99.90;;;;;;5014178;28;20038;-76
2022/05/20 01:37:36;;;;;;;11.27;8.82;;;12.70;99.90;;;;;;5012339;28;20054;-82
2022/05/20 01:40:01;;;;;;;14.32;7.55;;;12.70;99.90;;;;;;4995394;28;20437;-83
2022/05/20 01:42:40;;;;;;;9.85;8.85;;;12.70;99.90;;;;;;4998648;28;20559;-80
2022/05/20 01:45:15;;;;;;;13.25;9.38;;;13.50;99.90;;;;;;5001210;28;20052;-83
2022/05/20 01:47:58;;;;;;;11.38;8.63;;;12.70;99.90;;;;;;4996626;28;20121;-84
2022/05/20 01:50:27;;;;;;;10.07;8.48;;;12.70;99.90;;;;;;5002418;28;20492;-80
2022/05/20 01:53:16;;;;;;;12.00;8.48;;;12.70;99.90;;;;;;5005319;28;20042;-78
2022/05/20 01:56:02;;;;;;;10.73;8.43;;;12.70;99.90;;;;;;4999648;28;20513;-82
2022/05/20 01:58:39;;;;;;;15.15;9.30;;;12.70;99.90;;;;;;4998511;28;20466;-83
2022/05/20 02:01:10;;;;;;;11.02;8.70;;;12.80;99.90;;;;;;4979124;28;20025;-85
2022/05/20 02:03:46;;;;;;;16.67;9.27;;;13.70;99.90;;;;;;5004100;28;20501;-84
2022/05/20 02:06:20;;;;;;;10.02;9.02;;;13.20;99.90;;;;;;5004532;28;20101;-84
2022/05/20 02:08:57;;;;;;;10.45;8.90;;;12.80;99.90;;;;;;5018692;28;20118;-83
2022/05/20 02:11:29;;;;;;;11.20;8.23;;;12.80;99.90;;;;;;4979899;28;20526;-82
2022/05/20 02:14:32;;;;;;;11.30;8.40;;;12.80;99.90;;;;;;4981774;28;20049;-84
2022/05/20 02:17:14;;;;;;;11.52;9.13;;;12.70;99.90;;;;;;5042065;28;20045;-84
2022/05/20 02:20:04;;;;;;;11.75;8.20;;;12.70;99.90;;;;;;5043604;28;20485;-84
2022/05/20 02:22:34;;;;;;;9.45;8.00;;;12.70;99.90;;;;;;5026425;28;20048;-83
2022/05/20 02:25:03;;;;;;;8.90;7.88;;;12.70;99.90;;;;;;5043906;28;20042;-85
2022/05/20 02:27:35;;;;;;;11.82;7.43;;;11.90;99.90;;;;;;5039565;28;20184;-83
2022/05/20 02:30:07;;;;;;;9.63;8.38;;;12.60;99.90;;;;;;5022729;28;20392;-82
2022/05/20 02:32:39;;;;;;;8.82;7.75;;;12.60;99.90;;;;;;5012431;28;20133;-81
2022/05/20 02:35:05;;;;;;;9.00;7.55;;;12.60;99.90;;;;;;5022711;28;20549;-83
2022/05/20 02:37:34;;;;;;;10.98;8.25;;;12.60;99.90;;;;;;5038840;28;20120;-82
2022/05/20 02:40:01;;;;;;;13.27;8.25;;;12.60;99.90;;;;;;5020193;28;20072;-83
2022/05/20 02:42:28;;;;;;;12.68;8.18;;;13.10;99.90;;;;;;5040696;28;20052;-84
2022/05/20 02:44:55;;;;;;;10.63;8.52;;;12.60;99.90;;;;;;5003566;28;20056;-79
2022/05/20 02:47:21;;;;;;;10.43;9.32;;;12.50;99.90;;;;;;5010560;28;20048;-84
2022/05/20 02:49:47;;;;;;;11.38;8.48;;;12.50;99.90;;;;;;5042340;28;20049;-83
2022/05/20 02:52:13;;;;;;;9.77;8.60;;;12.60;99.90;;;;;;5014201;28;20053;-83
2022/05/20 02:54:38;;;;;;;14.00;9.38;;;13.30;99.90;;;;;;5040877;28;20029;-84
2022/05/20 02:57:04;;;;;;;10.43;8.70;;;12.50;99.90;;;;;;5038115;28;20056;-81
2022/05/20 03:04:58;;;;;;;11.65;8.88;;;12.90;99.90;;;;;;5037696;28;20045;-85
2022/05/20 03:07:24;;;;;;;11.63;8.77;;;13.40;99.90;;;;;;5039598;28;20535;-80
2022/05/20 03:09:51;;;;;;;13.00;9.88;;;12.40;99.90;;;;;;5020801;28;20048;-84
2022/05/20 03:12:18;;;;;;;11.75;9.70;;;12.30;99.90;;;;;;5034716;28;20415;-84
2022/05/20 03:14:43;;;;;;;11.73;9.80;;;12.40;99.90;;;;;;5019342;28;20203;-77
2022/05/20 03:17:09;;;;;;;14.70;10.80;;;12.40;99.90;;;;;;5027204;28;20161;-83
2022/05/20 03:19:34;;;;;;;12.48;9.82;;;13.90;99.90;;;;;;5028992;28;20266;-84
2022/05/20 03:22:02;;;;;;;11.25;9.15;;;12.40;99.90;;;;;;5039961;28;20029;-82
2022/05/20 03:24:28;;;;;;;17.02;11.30;;;12.30;99.90;;;;;;5023055;28;20060;-84
2022/05/20 03:26:55;;;;;;;16.55;11.43;;;12.30;99.90;;;;;;5024515;28;20085;-85
2022/05/20 03:29:21;;;;;;;12.38;10.43;;;12.30;99.90;;;;;;5012974;28;20467;-82
2022/05/20 03:31:47;;;;;;;11.95;10.60;;;12.60;99.90;;;;;;5026423;28;20045;-84
2022/05/20 03:34:13;;;;;;;14.27;10.52;;;12.30;99.90;;;;;;5022637;28;20496;-80
2022/05/20 03:36:44;;;;;;;12.32;11.02;;;12.30;99.90;;;;;;5050118;28;20047;-83
2022/05/20 03:39:12;;;;;;;13.80;11.43;;;12.30;99.90;;;;;;5018983;28;20041;-82
2022/05/20 03:41:38;;;;;;;17.17;11.77;;;12.30;99.90;;;;;;5028264;28;20174;-84
2022/05/20 03:44:05;;;;;;;13.55;10.73;;;12.30;99.90;;;;;;5040551;28;20135;-83
2022/05/20 03:46:31;;;;;;;15.50;12.35;;;12.30;99.90;;;;;;5047414;28;20120;-83
2022/05/20 03:48:59;;;;;;;15.80;12.07;;;12.30;99.90;;;;;;5011881;28;20051;-82
2022/05/20 03:51:25;;;;;;;14.90;11.98;;;12.10;99.90;;;;;;5028170;28;20553;-83
2022/05/20 03:53:50;;;;;;;18.40;12.85;;;12.20;99.90;;;;;;5022021;28;20038;-82
2022/05/20 03:56:16;;;;;;;14.80;11.27;;;12.20;99.90;;;;;;5021351;28;20041;-82
2022/05/20 03:58:41;;;;;;;20.02;13.30;;;12.20;99.90;;;;;;5038995;28;20367;-83
2022/05/20 04:03:56;;;;;;;13.75;12.27;;;12.10;99.90;;;;;;5027755;28;20049;-76
2022/05/20 04:06:21;;;;;;;13.70;12.13;;;12.10;99.90;;;;;;5006682;28;20041;-85
2022/05/20 04:08:47;;;;;;;19.33;13.00;;;12.00;99.90;;;;;;5025471;28;20158;-83
2022/05/20 04:11:14;;;;;;;17.77;14.43;;;12.00;99.90;;;;;;5048296;28;20488;-84
2022/05/20 04:13:41;;;;;;;16.92;13.68;;;13.10;99.90;;;;;;5031411;28;20051;-76
2022/05/20 04:16:09;;;;;;;16.00;14.30;;;11.90;99.90;;;;;;5021412;28;20045;-84
2022/05/20 04:18:35;;;;;;;18.45;13.32;;;11.80;99.90;;;;;;5038711;28;20153;-84
2022/05/20 04:21:01;;;;;;;17.13;14.02;;;11.70;99.90;;;;;;5026336;28;20078;-83
2022/05/20 04:23:27;;;;;;;15.63;13.70;;;11.80;99.90;;;;;;5041024;28;20167;-84
2022/05/20 04:25:52;;;;;;;17.88;14.15;;;11.80;99.90;;;;;;5048955;28;20128;-83
2022/05/20 04:28:18;;;;;;;15.57;13.50;;;11.80;99.90;;;;;;5047476;28;20312;-83
2022/05/20 04:30:44;;;;;;;16.52;11.80;;;11.70;99.90;;;;;;5023148;28;20052;-83
2022/05/20 04:33:10;;;;;;;15.57;12.43;;;11.80;99.90;;;;;;5026754;28;20049;-85
2022/05/20 04:35:36;;;;;;;16.13;12.43;;;12.50;99.90;;;;;;5026240;28;20033;-84
2022/05/20 04:38:02;;;;;;;17.30;14.27;;;13.60;99.90;;;;;;5026610;28;20353;-81
2022/05/20 04:40:28;;;;;;;19.85;14.20;;;11.90;99.90;;;;;;5008770;28;20078;-81
2022/05/20 04:46:56;;;;;;;16.80;11.98;;;11.90;99.90;;;;;;5020607;28;20061;-84
2022/05/20 04:48:32;;;;;;;11.95;10.82;;;12.00;99.90;;;;;;5041454;28;20049;-83
2022/05/20 04:50:58;;;;;;;14.10;12.48;;;12.20;99.90;;;;;;5039532;28;20618;-82
2022/05/20 04:56:10;;;;;;;15.25;12.85;;;12.10;99.90;;;;;;5005820;28;20535;-82
2022/05/20 04:58:35;;;;;;;13.85;11.57;;;13.40;99.90;;;;;;5041010;28;20068;-77
2022/05/20 05:01:01;;;;;;;14.23;12.27;;;12.10;99.90;;;;;;5023150;28;20063;-82
2022/05/20 05:03:27;;;;;;;14.10;12.70;;;12.20;99.90;;;;;;5009495;28;20262;-82
2022/05/20 05:05:52;;;;;;;14.60;11.85;;;12.20;99.90;;;;;;5007725;28;20469;-84
2022/05/20 05:08:18;;;;;;;16.20;12.98;;;12.20;99.90;;;;;;5024137;28;20519;-82
2022/05/20 05:10:44;;;;;;;15.82;13.52;;;12.20;99.90;;;;;;5040332;28;20400;-75
2022/05/20 05:13:11;;;;;;;14.55;12.90;;;12.60;99.90;;;;;;5022817;28;20040;-78
2022/05/20 05:15:37;;;;;;;15.05;12.70;;;12.20;99.90;;;;;;5007689;28;20562;-75
2022/05/20 05:18:12;;;;;;;16.48;12.98;;;12.20;99.90;;;;;;5023138;28;20369;-84
2022/05/20 05:20:47;;;;;;;18.65;13.30;;;12.20;99.90;;;;;;5021946;28;20033;-82
2022/05/20 05:23:14;;;;;;;19.23;14.10;;;12.20;99.90;;;;;;5042047;28;20518;-80
2022/05/20 05:25:40;;;;;;;17.55;12.90;;;12.20;99.90;;;;;;5020122;28;20507;-85
2022/05/20 05:28:07;;;;;;;14.70;13.02;;;12.20;99.90;;;;;;5037378;28;20047;-81
2022/05/20 05:30:33;;;;;;;15.55;13.02;;;12.20;99.90;;;;;;5028192;28;20436;-85
2022/05/20 05:32:59;;;;;;;16.50;12.10;;;12.20;99.90;;;;;;5023195;28;20037;-84
2022/05/20 05:35:30;;;;;;;13.98;11.75;;;12.20;99.90;;;;;;5025861;28;20060;-80
2022/05/20 05:37:56;;;;;;;15.13;11.73;;;12.30;99.90;;;;;;5015582;28;20050;-79
2022/05/20 05:40:25;;;;;;;19.65;13.55;;;12.70;99.90;;;;;;5027978;28;20037;-81
2022/05/20 05:42:51;;;;;;;17.17;13.00;;;12.40;99.90;;;;;;4656825;28;10000468;-74
2022/05/20 05:45:20;;;;;;;17.42;12.60;;;12.40;99.90;;;;;;5042205;28;20059;-80
2022/05/20 05:47:50;;;;;;;17.40;13.88;;;12.50;99.90;;;;;;5034986;28;20096;-81
2022/05/20 05:50:16;;;;;;;18.42;13.23;;;12.50;99.90;;;;;;4999009;28;20041;-77
2022/05/20 05:52:41;;;;;;;17.27;13.07;;;12.50;99.90;;;;;;5018471;28;20053;-78
2022/05/20 05:55:07;;;;;;;18.02;13.20;;;12.60;99.90;;;;;;5039723;28;20037;-78
2022/05/20 05:57:36;;;;;;;16.70;13.70;;;12.60;99.90;;;;;;5039646;28;20041;-78
2022/05/20 06:00:03;;;;;;;16.05;12.43;;;12.60;99.90;;;;;;5023670;28;20033;-82
2022/05/20 06:02:29;;;;;;;16.73;13.60;;;12.70;99.90;;;;;;5018322;28;20045;-82
2022/05/20 06:04:54;;;;;;;13.98;12.45;;;12.70;99.90;;;;;;5038886;28;20435;-81
2022/05/20 06:07:20;;;;;;;17.77;10.07;;;13.50;99.90;;;;;;5030027;28;20049;-82
2022/05/20 06:09:46;;;;;;;16.23;11.15;;;12.80;99.90;;;;;;5019056;28;20047;-80
2022/05/20 06:12:12;;;;;;;14.02;11.30;;;14.10;99.90;;;;;;5004626;28;20041;-78
2022/05/20 06:14:39;;;;;;;13.75;11.10;;;12.60;99.90;;;;;;5006520;28;20426;-82
2022/05/20 06:17:04;;;;;;;18.67;10.77;;;12.80;99.90;;;;;;5041515;28;20132;-76
2022/05/20 06:19:30;;;;;;;14.65;9.48;;;12.90;99.90;;;;;;5028158;28;20041;-80
2022/05/20 06:21:56;;;;;;;14.80;9.52;;;12.90;99.90;;;;;;5024410;28;20040;-77
2022/05/20 06:24:21;;;;;;;12.65;9.20;;;12.90;99.90;;;;;;5023610;28;20471;-81
2022/05/20 06:26:47;;;;;;;16.52;10.35;;;13.00;99.90;;;;;;5023545;28;20041;-81
2022/05/20 06:29:13;;;;;;;10.80;8.70;;;13.10;99.90;;;;;;5040506;28;20033;-78
2022/05/20 06:31:38;;;;;;;15.07;8.13;;;13.10;99.90;;;;;;5023381;28;20110;-76
2022/05/20 06:34:04;;;;;;;10.52;7.18;;;13.20;99.90;;;;;;5038369;28;20463;-79
2022/05/20 06:41:58;;;;;;;12.35;7.15;;;13.40;99.90;;;;;;5027573;28;20045;-78
2022/05/20 06:44:24;;;;;;;13.43;7.07;;;13.40;99.90;;;;;;5021412;28;20052;-81
2022/05/20 06:46:50;;;;;;;13.75;7.10;;;14.70;99.90;;;;;;5003696;28;20099;-81
2022/05/20 06:49:16;;;;;;;10.40;7.05;;;13.50;99.90;;;;;;5025116;28;20052;-81
2022/05/20 06:51:42;;;;;;;9.73;6.93;;;13.50;99.90;;;;;;5009237;28;20048;-79
2022/05/20 06:54:10;;;;;;;9.95;6.80;;;13.50;99.90;;;;;;5029032;28;20535;-81
2022/05/20 06:56:36;;;;;;;12.30;7.65;;;13.60;99.90;;;;;;5031530;28;20041;-79
2022/05/20 06:59:03;;;;;;;7.65;5.60;;;13.60;99.90;;;;;;5023628;28;20123;-74
2022/05/20 07:01:29;;;;;;;12.07;4.88;;;13.60;99.90;;;;;;5034401;28;20132;-75
2022/05/20 07:03:55;;;;;;;11.70;6.30;;;13.60;99.90;;;;;;5040584;28;20556;-81
2022/05/20 07:06:22;;;;;;;9.98;7.38;;;13.60;99.90;;;;;;5028711;28;20052;-79
2022/05/20 07:08:50;;;;;;;12.15;7.22;;;13.60;99.90;;;;;;5047309;28;20037;-74
2022/05/20 07:11:18;;;;;;;12.05;7.40;;;13.70;99.90;;;;;;5025132;28;20531;-79
2022/05/20 07:13:45;;;;;;;13.10;7.43;;;13.70;99.90;;;;;;5023097;28;20049;-80
2022/05/20 07:16:11;;;;;;;10.50;6.82;;;13.70;99.90;;;;;;5012584;28;20050;-75
2022/05/20 07:18:37;;;;;;;10.45;6.18;;;13.80;99.90;;;;;;5007385;28;20058;-77
2022/05/20 07:21:03;;;;;;;9.93;6.25;;;13.80;99.90;;;;;;5042405;28;20118;-78
2022/05/20 07:23:31;;;;;;;7.80;5.70;;;13.80;99.90;;;;;;5027281;28;20128;-80
2022/05/20 07:25:57;;;;;;;6.60;5.45;;;13.90;99.90;;;;;;5041748;28;20045;-78
2022/05/20 07:28:24;;;;;;;11.40;5.90;;;13.90;99.90;;;;;;5042765;28;20397;-81
2022/05/20 07:30:50;;;;;;;10.45;5.95;;;14.50;99.90;;;;;;5029147;28;20448;-77
2022/05/20 07:33:16;;;;;;;10.80;4.80;;;13.90;99.90;;;;;;5022029;28;20045;-80
2022/05/20 07:35:42;;;;;;;7.05;4.10;;;13.90;99.90;;;;;;5014562;28;20037;-77
2022/05/20 07:38:08;;;;;;;7.60;4.50;;;14.00;99.90;;;;;;5041822;28;20037;-74
2022/05/20 07:40:34;;;;;;;11.48;4.97;;;14.00;99.90;;;;;;5025368;28;20485;-74
2022/05/20 07:43:00;;;;;;;7.75;4.97;;;14.00;99.90;;;;;;5048186;28;20037;-78
2022/05/20 07:45:25;;;;;;;11.68;4.85;;;14.10;99.90;;;;;;5023877;28;20052;-77
2022/05/20 07:47:51;;;;;;;9.82;3.92;;;14.10;99.90;;;;;;5025617;28;20041;-76
2022/05/20 07:50:17;;;;;;;7.50;3.22;;;14.20;99.90;;;;;;5026597;28;20072;-76
2022/05/20 07:55:36;;;;;;;9.07;3.78;;;14.30;99.90;;;;;;5046985;28;20931;-75
2022/05/20 07:58:05;;;;;;;8.85;5.05;;;14.40;99.90;;;;;;5042426;28;20049;-75
2022/05/20 08:00:31;;;;;;;11.05;3.85;;;14.50;99.90;;;;;;5044104;28;20045;-80
2022/05/20 08:03:01;;;;;;;8.30;4.07;;;14.50;99.90;;;;;;5019063;28;20053;-78
2022/05/20 08:05:28;;;;;;;8.65;3.13;;;14.60;99.90;;;;;;5024970;28;20076;-80
2022/05/20 08:08:00;;;;;;;7.68;2.83;;;14.50;99.90;;;;;;5042913;28;20102;-80
2022/05/20 08:10:28;;;;;;;5.40;2.20;;;14.30;99.90;;;;;;5008738;28;20037;-77
2022/05/20 08:12:56;;;;;;;8.07;2.72;;;14.70;99.90;;;;;;5043712;28;20097;-73
2022/05/20 08:15:23;;;;;;;7.10;3.53;;;14.80;99.90;;;;;;5048384;28;20057;-77
2022/05/20 08:17:49;;;;;;;9.32;3.72;;;14.80;99.90;;;;;;5029312;28;20041;-77
2022/05/20 08:20:25;;;;;;;6.30;2.90;;;14.90;99.90;;;;;;5033903;28;20072;-75
2022/05/20 08:22:55;;;;;;;8.57;2.67;;;14.90;99.90;;;;;;5030745;28;20090;-77
2022/05/20 08:25:22;;;;;;;4.20;2.28;;;15.10;99.90;;;;;;5006792;28;20037;-78
2022/05/20 08:27:48;;;;;;;9.38;3.10;;;15.20;99.90;;;;;;5025989;28;20447;-81
2022/05/20 08:30:22;;;;;;;5.72;2.88;;;15.30;99.90;;;;;;5019956;28;21055;-80
2022/05/20 08:32:48;;;;;;;7.80;3.38;;;15.30;99.90;;;;;;5042944;28;20045;-80
2022/05/20 08:35:14;;;;;;;5.70;3.65;;;15.40;99.90;;;;;;5042990;28;20396;-80
2022/05/20 08:37:42;;;;;;;7.28;3.47;;;15.40;99.90;;;;;;5030084;28;20401;-79
2022/05/20 08:40:11;;;;;;;6.38;2.95;;;15.50;99.90;;;;;;5040073;28;20396;-80
2022/05/20 08:42:37;;;;;;;4.25;2.53;;;15.50;99.90;;;;;;5021607;28;20063;-77
2022/05/20 08:45:04;;;;;;;7.53;2.90;;;15.50;99.90;;;;;;5038604;28;20052;-80
2022/05/20 08:47:46;;;;;;;5.75;2.85;;;15.60;99.90;;;;;;5025662;28;20091;-74
2022/05/20 08:50:43;;;;;;;7.57;2.80;;;15.80;99.90;;;;;;5045482;28;20128;-75
2022/05/20 08:53:19;;;;;;;7.15;3.05;;;15.90;99.90;;;;;;5020242;28;20460;-74
2022/05/20 08:55:45;;;;;;;7.35;3.17;;;15.90;99.90;;;;;;5039917;28;20124;-75
2022/05/20 08:58:16;;;;;;;4.80;2.72;;;16.00;99.90;;;;;;5026495;28;20529;-76
2022/05/20 09:00:43;;;;;;;4.50;2.97;;;16.10;99.90;;;;;;5039786;28;20037;-76
2022/05/20 09:03:09;;;;;;;7.38;3.13;;;17.00;99.90;;;;;;5025977;28;20056;-81
2022/05/20 09:05:38;;;;;;;7.25;2.78;;;16.10;99.90;;;;;;5044134;28;20068;-75
2022/05/20 09:08:21;;;;;;;4.95;2.13;;;16.20;99.90;;;;;;5045551;28;20593;-78
2022/05/20 09:10:49;;;;;;;7.28;2.55;;;16.30;99.90;;;;;;5007393;28;20080;-74
2022/05/20 09:16:14;;;;;;;3.97;2.80;;;16.30;99.90;;;;;;5047121;28;20124;-81
2022/05/20 09:18:43;;;;;;;8.77;3.40;;;16.30;99.90;;;;;;5025458;28;20053;-86
2022/05/20 09:21:26;;;;;;;7.15;3.05;;;16.40;99.90;;;;;;5028339;28;20059;-82
2022/05/20 09:23:55;;;;;;;8.20;3.28;;;16.40;99.90;;;;;;5046225;28;20033;-82
2022/05/20 09:26:29;;;;;;;5.90;2.42;;;16.40;99.90;;;;;;5046627;28;20107;-83
2022/05/20 09:29:06;;;;;;;6.40;2.85;;;16.50;99.90;;;;;;5025541;28;20069;-83
2022/05/20 09:31:43;;;;;;;4.68;2.33;;;16.60;99.90;;;;;;5026420;28;20052;-83
2022/05/20 09:34:19;;;;;;;5.18;3.28;;;16.60;99.90;;;;;;5042898;28;20079;-78
2022/05/20 09:36:55;;;;;;;5.45;3.42;;;16.70;99.90;;;;;;5049258;28;20126;-77
2022/05/20 09:39:31;;;;;;;7.50;3.78;;;16.80;99.90;;;;;;4694135;28;10000054;-77
2022/05/20 09:42:04;;;;;;;6.55;3.17;;;16.60;99.90;;;;;;5021639;28;20127;-74
2022/05/20 09:44:37;;;;;;;9.40;3.70;;;16.60;99.90;;;;;;5047513;28;20049;-78
2022/05/20 09:47:38;;;;;;;4.72;3.17;;;16.60;99.90;;;;;;5039540;28;20047;-79
2022/05/20 09:50:34;;;;;;;9.07;3.90;;;16.50;99.90;;;;;;5020523;28;20056;-75
2022/05/20 09:52:59;;;;;;;6.95;3.67;;;16.60;99.90;;;;;;5016539;28;20036;-76
2022/05/20 09:55:40;;;;;;;5.97;3.80;;;16.70;99.90;;;;;;5015657;28;20099;-76
2022/05/20 09:58:30;;;;;;;6.55;3.90;;;16.60;99.90;;;;;;5015485;28;20160;-79
2022/05/20 10:01:11;;;;;;;5.55;3.75;;;16.60;99.90;;;;;;4997683;28;20164;-76
2022/05/20 10:03:56;;;;;;;5.03;3.33;;;16.80;99.90;;;;;;5021008;28;20132;-77
2022/05/20 10:06:51;;;;;;;7.00;4.10;;;16.60;99.90;;;;;;5015688;28;20037;-81
2022/05/20 10:09:28;;;;;;;;;;;16.70;99.90;;;;;;5023728;28;20110;-73
2022/05/20 10:12:03;;;;;;;5.80;3.28;;;16.70;99.90;;;;;;5005361;28;20344;-72
2022/05/20 10:14:56;;;;;;;4.78;3.33;;;16.70;99.90;;;;;;5041961;28;20045;-73
2022/05/20 10:17:43;;;;;;;5.05;2.42;;;16.80;99.90;;;;;;5025092;28;20118;-73
2022/05/20 10:20:20;;;;;;;10.65;3.15;;;16.80;99.90;;;;;;5035460;28;20136;-73
2022/05/20 10:22:45;;;;;;;6.18;2.22;;;16.80;99.90;;;;;;5038857;28;20102;-74
2022/05/20 10:25:23;;;;;;;4.03;2.03;;;16.80;99.90;;;;;;5023924;28;20636;-74
2022/05/20 10:28:05;;;;;;;5.65;2.30;;;16.80;99.90;;;;;;5027550;28;20052;-73
2022/05/20 10:33:29;;;;;;;7.18;2.72;;;16.90;99.90;;;;;;5030321;28;20043;-75
2022/05/20 10:36:01;;;;;;;8.63;3.05;;;16.90;99.90;;;;;;5043138;28;20079;-75
2022/05/20 10:38:58;;;;;;;6.25;2.78;;;16.90;99.90;;;;;;5044070;28;20033;-75
2022/05/20 10:41:39;;;;;;;12.10;2.60;;;17.00;99.90;;;;;;5013003;28;20055;-74
2022/05/20 10:50:32;;;;;;;6.05;2.22;;;17.20;99.90;;;;;;5026597;28;19920;-73
2022/05/20 10:53:42;;;;;;;5.50;2.25;;;17.20;99.90;;;;;;5026714;28;20471;-74
2022/05/20 10:56:27;;;;;;;3.35;1.70;;;17.20;99.90;;;;;;4998242;28;20505;-74
2022/05/20 10:59:21;;;;;;;6.05;2.38;;;17.30;99.90;;;;;;5043547;28;20037;-74
2022/05/20 11:02:18;;;;;;;9.23;2.55;;;17.40;99.90;;;;;;5043119;28;20045;-74
2022/05/20 11:04:50;;;;;;;5.00;2.60;;;17.40;99.90;;;;;;5021666;28;20049;-75
2022/05/20 11:07:35;;;;;;;3.58;2.35;;;17.40;99.90;;;;;;5023797;28;20040;-75
2022/05/20 11:10:28;;;;;;;5.75;2.60;;;17.50;99.90;;;;;;5008607;28;20041;-76
2022/05/20 11:12:54;;;;;;;5.30;2.65;;;17.40;99.90;;;;;;5044147;28;20482;-74
2022/05/20 11:15:38;;;;;;;6.00;2.30;;;17.60;99.90;;;;;;5016773;28;20054;-75
2022/05/20 11:18:25;;;;;;;3.35;1.73;;;17.50;99.90;;;;;;5002489;28;20050;-75
2022/05/20 11:21:20;;;;;;;6.25;2.80;;;17.60;99.90;;;;;;4997074;28;20406;-75
2022/05/20 11:24:04;;;;;;;6.20;2.60;;;17.70;99.90;;;;;;5006202;28;20050;-85
2022/05/20 11:26:52;;;;;;;3.58;1.92;;;17.90;99.90;;;;;;4990644;28;20551;-88
2022/05/20 11:29:29;;;;;;;6.05;2.00;;;17.90;99.90;;;;;;5002275;28;20049;-87
2022/05/20 11:32:05;;;;;;;5.97;2.22;;;18.00;99.90;;;;;;4986802;28;20042;-89
2022/05/20 11:35:07;;;;;;;7.15;2.38;;;18.20;99.90;;;;;;5003210;28;20152;-88
2022/05/20 11:38:01;;;;;;;5.47;2.47;;;18.30;99.90;;;;;;5004104;28;20145;-88
2022/05/20 11:40:54;;;;;;;8.13;2.25;;;18.40;99.90;;;;;;5008033;28;20046;-85
2022/05/20 11:43:48;;;;;;;4.63;2.50;;;18.40;99.90;;;;;;5005265;28;20096;-83
2022/05/20 11:46:20;;;;;;;5.70;2.05;;;18.40;99.90;;;;;;5007977;28;20124;-82
2022/05/20 11:49:18;;;;;;;5.97;2.08;;;18.50;99.90;;;;;;5000976;28;20133;-86
2022/05/20 11:51:59;;;;;;;3.35;2.45;;;18.50;99.90;;;;;;5018841;28;20054;-83
2022/05/20 11:54:33;;;;;;;2.83;1.85;;;18.60;99.90;;;;;;5001178;28;20522;-78
2022/05/20 11:57:17;;;;;;;2.58;1.52;;;18.60;99.90;;;;;;5004082;28;20048;-76
2022/05/20 12:00:11;;;;;;;3.05;1.90;;;18.60;99.90;;;;;;5001164;28;20050;-87
2022/05/20 12:02:47;;;;;;;4.70;1.48;;;18.60;99.90;;;;;;5025861;28;20119;-76
2022/05/20 12:05:16;;;;;;;8.63;1.33;;;18.60;99.90;;;;;;5007796;28;20091;-78
2022/05/20 12:07:42;;;;;;;2.65;1.35;;;18.60;99.90;;;;;;4999004;28;20117;-76
2022/05/20 12:10:20;;;;;;;3.72;2.05;;;19.70;99.90;;;;;;4998445;28;20188;-76
2022/05/20 12:13:11;;;;;;;3.10;1.60;;;18.70;99.90;;;;;;5000436;28;20053;-86
2022/05/20 12:15:47;;;;;;;2.70;1.40;;;18.70;99.90;;;;;;5010890;28;20103;-88
2022/05/20 12:24:12;;;;;;;5.38;1.92;;;19.50;99.90;;;;;;5044275;28;20049;-85
2022/05/20 12:26:51;;;;;;;3.47;1.80;;;19.50;99.90;;;;;;5027997;28;20034;-88
2022/05/20 12:29:35;;;;;;;2.92;2.33;;;18.60;99.90;;;;;;5014610;28;20135;-86
2022/05/20 12:32:36;;;;;;;2.45;1.60;;;19.70;99.90;;;;;;5041651;28;20060;-86
2022/05/20 12:35:19;;;;;;;4.28;2.70;;;18.70;99.90;;;;;;5022266;28;20042;-81
2022/05/20 12:37:45;;;;;;;3.08;2.10;;;18.80;99.90;;;;;;5029788;28;20128;-86
2022/05/20 12:40:31;;;;;;;4.18;2.00;;;18.90;99.90;;;;;;5021717;28;20414;-88
2022/05/20 12:43:09;;;;;;;4.78;3.13;;;19.30;99.90;;;;;;5023224;28;20063;-81
2022/05/20 12:45:47;;;;;;;3.80;2.22;;;19.00;99.90;;;;;;5021962;28;20049;-85
2022/05/20 12:48:14;;;;;;;4.13;2.70;;;19.00;99.90;;;;;;5015174;28;20045;-76
2022/05/20 12:50:40;;;;;;;5.10;2.83;;;19.00;99.90;;;;;;5040303;28;20044;-75
2022/05/20 12:53:12;;;;;;;8.27;2.85;;;19.00;99.90;;;;;;5044282;28;20041;-77
2022/05/20 12:55:45;;;;;;;6.82;2.85;;;19.10;99.90;;;;;;5042405;28;20037;-74
2022/05/20 12:58:14;;;;;;;5.75;2.90;;;19.20;99.90;;;;;;5024899;28;20068;-75
2022/05/20 13:00:50;;;;;;;6.07;2.78;;;19.30;99.90;;;;;;5043140;28;20037;-72
2022/05/20 13:03:37;;;;;;;3.30;2.33;;;19.30;99.90;;;;;;5033473;28;21049;-87
2022/05/20 13:06:15;;;;;;;2.53;2.33;;;19.40;99.90;;;;;;5007357;28;20472;-81
2022/05/20 13:08:57;;;;;;;5.72;2.42;;;19.30;99.90;;;;;;5044712;28;20044;-86
2022/05/20 13:11:23;;;;;;;3.40;2.72;;;19.20;99.90;;;;;;5013758;28;20037;-85
2022/05/20 13:13:54;;;;;;;4.45;2.75;;;19.00;99.90;;;;;;5031212;28;20051;-85
2022/05/20 13:16:24;;;;;;;2.50;2.22;;;19.00;99.90;;;;;;5031326;28;20132;-85
2022/05/20 13:19:08;;;;;;;4.00;1.73;;;18.90;99.90;;;;;;5014834;28;20143;-82
2022/05/20 13:21:50;;;;;;;3.25;2.35;;;18.80;99.90;;;;;;5028333;28;20040;-88
2022/05/20 13:24:25;;;;;;;3.53;1.85;;;18.70;99.90;;;;;;5035655;28;20045;-83
2022/05/20 13:27:03;;;;;;;5.30;2.20;;;19.10;99.90;;;;;;5030808;28;20552;-88
2022/05/20 13:29:28;;;;;;;4.10;1.92;;;18.60;99.90;;;;;;5032550;28;20094;-87
2022/05/20 13:32:20;;;;;;;2.17;2.00;;;18.50;99.90;;;;;;5029794;28;20464;-89
2022/05/20 13:34:49;;;;;;;3.35;1.88;;;18.40;99.90;;;;;;5044104;28;20412;-90
2022/05/20 13:37:20;;;;;;;2.38;1.67;;;18.40;99.90;;;;;;5028960;28;20056;-87
2022/05/20 13:39:45;;;;;;;4.13;2.15;;;18.30;99.90;;;;;;5029785;28;20043;-89
2022/05/20 13:42:14;;;;;;;5.60;2.10;;;18.30;99.90;;;;;;5015259;28;20044;-89
2022/05/20 13:44:42;;;;;;;3.40;2.33;;;18.20;99.90;;;;;;5043409;28;20095;-86